createdAt,value
2019-04-20T00:01:23.490Z,2.77
2019-04-20T00:03:50.674Z,2.40
2019-04-20T00:06:21.489Z,2.60
2019-04-20T00:08:58.120Z,2.80
2019-04-20T00:11:30.768Z,2.67
2019-04-20T00:14:00.132Z,2.93
2019-04-20T00:16:23.224Z,2.73
2019-04-20T00:18:56.645Z,2.20
2019-04-20T00:21:42.848Z,2.27
2019-04-20T00:24:21.105Z,2.90
2019-04-20T00:27:08.510Z,2.50
2019-04-20T00:29:35.276Z,2.67
2019-04-20T00:31:59.350Z,2.80
2019-04-20T00:34:24.754Z,2.60
2019-04-20T00:36:49.637Z,2.70
2019-04-20T00:39:20.231Z,2.77
2019-04-20T00:41:57.120Z,2.43
2019-04-20T00:44:27.619Z,2.33
2019-04-20T00:47:04.554Z,2.93
2019-04-20T00:49:34.522Z,2.47
2019-04-20T00:52:19.153Z,2.50
2019-04-20T00:54:24.177Z,2.90
2019-04-20T00:57:05.790Z,2.53
2019-04-20T00:59:35.464Z,2.60
2019-04-20T01:02:15.617Z,3.00
2019-04-20T01:04:47.700Z,2.73
2019-04-20T01:07:20.318Z,2.70
2019-04-20T01:09:56.284Z,2.70
2019-04-20T01:12:28.594Z,2.60
2019-04-20T01:15:01.306Z,2.53
2019-04-20T01:17:26.589Z,2.87
2019-04-20T01:19:55.627Z,2.70
2019-04-20T01:22:27.311Z,2.77
2019-04-20T01:25:00.135Z,2.73
2019-04-20T01:27:39.572Z,3.07
2019-04-20T01:30:07.446Z,2.80
2019-04-20T01:32:37.234Z,2.83
2019-04-20T01:35:14.048Z,2.93
2019-04-20T01:37:40.868Z,2.80
2019-04-20T01:40:03.972Z,2.93
2019-04-20T01:42:30.520Z,2.87
2019-04-20T01:45:00.285Z,2.80
2019-04-20T01:47:35.808Z,2.73
2019-04-20T01:50:08.544Z,2.87
2019-04-20T01:52:45.005Z,2.80
2019-04-20T01:55:33.221Z,2.60
2019-04-20T01:58:12.106Z,2.73
2019-04-20T02:00:53.023Z,2.97
2019-04-20T02:03:43.025Z,2.77
2019-04-20T02:06:13.627Z,2.50
2019-04-20T02:08:40.062Z,3.10
2019-04-20T02:11:09.955Z,2.90
2019-04-20T02:13:47.101Z,2.80
2019-04-20T02:16:19.166Z,2.70
2019-04-20T02:19:00.475Z,3.10
2019-04-20T02:21:31.695Z,2.70
2019-04-20T02:23:49.902Z,2.83
2019-04-20T02:26:14.310Z,2.43
2019-04-20T02:29:07.739Z,2.60
2019-04-20T02:31:55.868Z,2.90
2019-04-20T02:34:29.221Z,2.80
2019-04-20T02:37:09.267Z,2.40
2019-04-20T02:39:39.470Z,2.40
2019-04-20T02:42:05.407Z,2.60
2019-04-20T02:44:42.296Z,3.00
2019-04-20T02:47:08.454Z,2.90
2019-04-20T02:49:36.286Z,2.83
2019-04-20T02:57:15.071Z,2.83
2019-04-20T03:01:50.158Z,2.63
2019-04-20T03:04:16.296Z,3.27
2019-04-20T03:06:52.329Z,2.70
2019-04-20T03:09:33.100Z,2.60
2019-04-20T03:12:04.807Z,2.77
2019-04-20T03:14:26.617Z,2.33
2019-04-20T03:17:08.575Z,2.20
2019-04-20T03:19:23.647Z,2.33
2019-04-20T03:22:03.855Z,2.70
2019-04-20T03:24:38.750Z,2.40
2019-04-20T03:27:09.609Z,2.83
2019-04-20T03:29:56.619Z,2.53
2019-04-20T03:32:57.979Z,2.23
2019-04-20T03:37:36.971Z,2.57
2019-04-20T03:39:57.083Z,2.60
2019-04-20T03:42:16.036Z,2.90
2019-04-20T03:44:52.937Z,2.37
2019-04-20T03:47:26.842Z,2.50
2019-04-20T03:50:07.338Z,2.70
2019-04-20T03:52:54.282Z,2.60
2019-04-20T03:55:35.591Z,2.67
2019-04-20T03:58:14.302Z,2.57
2019-04-20T04:01:03.896Z,2.27
2019-04-20T04:04:05.154Z,2.77
2019-04-20T04:06:23.583Z,2.80
2019-04-20T04:08:58.665Z,2.67
2019-04-20T04:11:34.081Z,2.33
2019-04-20T04:13:44.326Z,2.33
2019-04-20T04:16:16.794Z,2.50
2019-04-20T04:18:49.145Z,2.57
2019-04-20T04:21:23.168Z,2.50
2019-04-20T04:24:02.226Z,2.63
2019-04-20T04:26:32.272Z,2.40
2019-04-20T04:29:08.399Z,2.63
2019-04-20T04:31:37.256Z,2.77
2019-04-20T04:34:24.975Z,2.70
2019-04-20T04:36:36.096Z,2.50
2019-04-20T04:39:22.872Z,2.47
2019-04-20T04:41:43.960Z,2.77
2019-04-20T04:44:08.651Z,2.40
2019-04-20T04:46:22.773Z,2.50
2019-04-20T04:48:54.537Z,2.63
2019-04-20T04:51:27.815Z,2.70
2019-04-20T04:54:01.793Z,2.87
2019-04-20T04:56:26.500Z,2.53
2019-04-20T04:58:54.451Z,2.47
2019-04-20T05:01:28.793Z,2.50
2019-04-20T05:04:24.771Z,2.83
2019-04-20T05:06:41.423Z,3.00
2019-04-20T05:09:00.829Z,2.60
2019-04-20T05:11:27.961Z,2.50
2019-04-20T05:14:03.241Z,2.50
2019-04-20T05:16:45.185Z,2.70
2019-04-20T05:19:18.969Z,2.67
2019-04-20T05:22:05.366Z,2.63
2019-04-20T05:25:01.194Z,2.80
2019-04-20T05:27:39.157Z,2.77
2019-04-20T05:29:48.816Z,2.90
2019-04-20T05:32:31.152Z,2.80
2019-04-20T05:35:12.311Z,2.57
2019-04-20T05:37:41.417Z,2.60
2019-04-20T05:40:10.479Z,2.67
2019-04-20T05:42:54.130Z,2.63
2019-04-20T05:45:21.993Z,3.07
2019-04-20T05:47:50.738Z,3.00
2019-04-20T05:50:23.332Z,2.53
2019-04-20T05:53:01.806Z,2.50
2019-04-20T05:55:25.291Z,2.30
2019-04-20T05:58:01.991Z,2.43
2019-04-20T06:00:34.937Z,2.60
2019-04-20T06:02:57.788Z,2.77
2019-04-20T06:05:38.857Z,2.23
2019-04-20T06:08:02.056Z,2.43
2019-04-20T06:10:31.890Z,2.53
2019-04-20T06:13:04.428Z,2.70
2019-04-20T06:15:46.773Z,2.67
2019-04-20T06:18:16.741Z,2.53
2019-04-20T06:20:54.983Z,2.33
2019-04-20T06:23:40.401Z,2.87
2019-04-20T06:26:20.955Z,3.07
2019-04-20T06:28:30.174Z,2.60
2019-04-20T06:31:03.763Z,2.80
2019-04-20T06:34:27.152Z,2.57
2019-04-20T06:36:53.451Z,2.30
2019-04-20T06:39:26.241Z,2.20
2019-04-20T06:44:26.699Z,2.23
2019-04-20T06:46:59.098Z,2.43
2019-04-20T06:55:03.214Z,2.30
2019-04-20T06:57:35.691Z,2.43
2019-04-20T07:00:08.779Z,2.40
2019-04-20T07:02:41.488Z,2.70
2019-04-20T07:07:43.163Z,2.50
2019-04-20T07:10:16.371Z,2.20
2019-04-20T07:12:39.576Z,2.47
2019-04-20T07:14:59.617Z,2.10
2019-04-20T07:17:55.011Z,2.40
2019-04-20T07:20:15.890Z,2.50
2019-04-20T07:23:02.330Z,2.63
2019-04-20T07:25:33.237Z,2.20
2019-04-20T07:28:02.921Z,2.20
2019-04-20T07:30:29.633Z,2.57
2019-04-20T07:32:59.925Z,2.47
2019-04-20T07:35:30.424Z,2.50
2019-04-20T07:38:18.248Z,2.40
2019-04-20T07:40:29.154Z,2.53
2019-04-20T07:43:19.776Z,2.27
2019-04-20T07:45:33.173Z,2.80
2019-04-20T07:48:12.403Z,2.00
2019-04-20T07:50:31.817Z,2.60
2019-04-20T07:53:04.447Z,2.37
2019-04-20T07:55:47.764Z,2.30
2019-04-20T07:58:02.751Z,2.50
2019-04-20T08:00:53.248Z,2.10
2019-04-20T08:03:33.641Z,2.47
2019-04-20T08:06:13.629Z,2.50
2019-04-20T08:08:53.115Z,2.20
2019-04-20T08:11:22.884Z,2.23
2019-04-20T08:13:58.935Z,2.20
2019-04-20T08:16:38.240Z,2.93
2019-04-20T08:19:00.950Z,2.43
2019-04-20T08:21:35.219Z,2.37
2019-04-20T08:24:02.232Z,2.43
2019-04-20T08:26:20.343Z,2.53
2019-04-20T08:29:01.840Z,2.70
2019-04-20T08:31:43.454Z,2.90
2019-04-20T08:34:31.313Z,2.90
2019-04-20T08:36:56.890Z,2.17
2019-04-20T08:39:41.153Z,2.60
2019-04-20T08:42:04.313Z,2.73
2019-04-20T08:44:46.648Z,2.43
2019-04-20T08:49:35.105Z,2.50
2019-04-20T08:52:12.408Z,2.60
2019-04-20T08:54:32.708Z,2.30
2019-04-20T08:56:51.807Z,2.93
2019-04-20T08:59:14.877Z,2.97
2019-04-20T09:01:44.656Z,2.30
2019-04-20T09:04:20.741Z,2.27
2019-04-20T09:06:58.791Z,3.00
2019-04-20T09:09:44.229Z,2.63
2019-04-20T09:12:05.820Z,2.93
2019-04-20T09:14:21.299Z,2.13
2019-04-20T09:17:04.978Z,2.50
2019-04-20T09:19:36.558Z,2.17
2019-04-20T09:22:28.281Z,2.40
2019-04-20T09:25:25.368Z,2.57
2019-04-20T09:27:28.982Z,2.33
2019-04-20T09:30:03.369Z,2.53
2019-04-20T09:32:40.073Z,2.27
2019-04-20T09:35:16.122Z,2.40
2019-04-20T09:37:53.156Z,2.43
2019-04-20T09:40:32.140Z,2.60
2019-04-20T09:43:02.339Z,2.50
2019-04-20T09:45:49.900Z,2.37
2019-04-20T09:48:25.171Z,2.33
2019-04-20T09:51:05.159Z,2.23
2019-04-20T09:53:30.219Z,2.10
2019-04-20T09:56:07.538Z,2.40
2019-04-20T09:58:28.971Z,2.40
2019-04-20T10:01:05.528Z,2.57
2019-04-20T10:03:22.646Z,2.27
2019-04-20T10:05:51.812Z,2.67
2019-04-20T10:08:21.887Z,2.30
2019-04-20T10:10:52.517Z,2.23
2019-04-20T10:13:21.839Z,2.27
2019-04-20T10:15:50.785Z,2.50
2019-04-20T10:18:19.842Z,2.30
2019-04-20T10:20:49.586Z,2.10
2019-04-20T10:23:19.109Z,1.93
2019-04-20T10:25:48.766Z,2.40
2019-04-20T10:28:17.759Z,2.30
2019-04-20T10:30:48.358Z,2.47
2019-04-20T10:33:17.668Z,2.20
2019-04-20T10:35:47.671Z,2.73
2019-04-20T10:38:21.423Z,2.47
2019-04-20T10:40:59.791Z,2.30
2019-04-20T10:43:21.940Z,2.20
2019-04-20T10:45:51.235Z,1.90
2019-04-20T10:48:21.408Z,2.17
2019-04-20T10:50:50.439Z,2.00
2019-04-20T10:53:19.691Z,2.33
2019-04-20T10:55:49.513Z,2.13
2019-04-20T10:58:19.746Z,2.50
2019-04-20T11:00:50.126Z,2.33
2019-04-20T11:03:19.992Z,2.50
2019-04-20T11:05:50.825Z,2.17
2019-04-20T11:08:20.328Z,2.80
2019-04-20T11:11:00.228Z,2.47
2019-04-20T11:13:21.458Z,2.23
2019-04-20T11:15:50.649Z,2.20
2019-04-20T11:18:19.952Z,2.30
2019-04-20T11:20:49.400Z,2.20
2019-04-20T11:23:18.643Z,1.70
2019-04-20T11:25:48.378Z,2.50
2019-04-20T11:28:17.640Z,2.40
2019-04-20T11:30:47.817Z,2.10
2019-04-20T11:33:18.224Z,2.47
2019-04-20T11:35:48.583Z,2.30
2019-04-20T11:38:19.635Z,2.40
2019-04-20T11:41:01.424Z,2.87
2019-04-20T11:43:19.791Z,2.60
2019-04-20T11:45:49.298Z,2.50
2019-04-20T11:48:19.158Z,2.03
2019-04-20T11:50:49.509Z,2.20
2019-04-20T11:53:19.368Z,2.37
2019-04-20T11:55:48.760Z,2.13
2019-04-20T11:58:17.955Z,2.27
2019-04-20T12:01:00.730Z,2.30
2019-04-20T12:03:29.845Z,2.30
2019-04-20T12:05:57.325Z,2.60
2019-04-20T12:08:24.965Z,2.30
2019-04-20T12:10:58.548Z,2.17
2019-04-20T12:13:26.742Z,2.73
2019-04-20T12:15:56.048Z,2.63
2019-04-20T12:18:27.474Z,2.40
2019-04-20T12:20:56.838Z,2.60
2019-04-20T12:23:26.470Z,2.50
2019-04-20T12:25:56.428Z,2.10
2019-04-20T12:28:25.643Z,2.23
2019-04-20T12:30:56.010Z,2.17
2019-04-20T12:33:26.426Z,2.20
2019-04-20T12:35:56.331Z,2.67
2019-04-20T12:38:25.438Z,2.60
2019-04-20T12:40:55.663Z,2.40
2019-04-20T12:43:25.552Z,2.53
2019-04-20T12:45:55.836Z,2.47
2019-04-20T12:48:25.937Z,2.50
2019-04-20T12:50:55.431Z,2.07
2019-04-20T12:53:24.651Z,2.30
2019-04-20T12:55:54.781Z,2.40
2019-04-20T12:58:23.931Z,2.40
2019-04-20T13:00:54.395Z,2.33
2019-04-20T13:03:23.667Z,2.10
2019-04-20T13:05:54.098Z,1.73
2019-04-20T13:08:30.397Z,1.97
2019-04-20T13:10:58.563Z,1.97
2019-04-20T13:13:42.208Z,2.40
2019-04-20T13:16:20.606Z,1.97
2019-04-20T13:18:53.153Z,2.53
2019-04-20T13:21:22.989Z,2.40
2019-04-20T13:23:53.156Z,2.00
2019-04-20T13:26:22.677Z,2.33
2019-04-20T13:28:52.929Z,2.10
2019-04-20T13:31:24.010Z,2.23
2019-04-20T13:33:53.160Z,2.43
2019-04-20T13:36:22.288Z,2.00
2019-04-20T13:38:52.208Z,2.10
2019-04-20T13:41:22.033Z,2.27
2019-04-20T13:43:51.160Z,2.10
2019-04-20T13:46:20.851Z,1.87
2019-04-20T13:48:51.063Z,2.20
2019-04-20T13:51:21.036Z,1.87
2019-04-20T13:53:51.053Z,2.23
2019-04-20T13:56:21.863Z,2.40
2019-04-20T13:59:03.904Z,2.40
2019-04-20T14:01:50.751Z,2.20
2019-04-20T14:04:23.108Z,2.10
2019-04-20T14:06:53.350Z,2.17
2019-04-20T14:09:23.542Z,2.30
2019-04-20T14:11:53.667Z,2.80
2019-04-20T14:14:23.462Z,3.50
2019-04-20T14:16:52.994Z,2.70
2019-04-20T14:19:23.197Z,2.20
2019-04-20T14:21:52.377Z,2.60
2019-04-20T14:24:21.438Z,2.07
2019-04-20T14:26:51.075Z,2.10
2019-04-20T14:29:20.909Z,2.20
2019-04-20T14:31:50.415Z,2.10
2019-04-20T14:34:20.605Z,2.43
2019-04-20T14:36:50.917Z,2.50
2019-04-20T14:39:20.420Z,2.20
2019-04-20T14:41:49.420Z,2.40
2019-04-20T14:44:19.595Z,2.10
2019-04-20T14:46:49.706Z,2.60
2019-04-20T14:49:18.741Z,2.20
2019-04-20T14:51:48.159Z,2.07
2019-04-20T14:54:17.232Z,2.40
2019-04-20T14:56:47.309Z,2.10
2019-04-20T14:59:33.768Z,2.40
2019-04-20T15:02:08.687Z,2.90
2019-04-20T15:04:39.049Z,2.83
2019-04-20T15:07:08.729Z,2.23
2019-04-20T15:09:39.351Z,1.97
2019-04-20T15:12:09.108Z,2.70
2019-04-20T15:14:38.652Z,2.67
2019-04-20T15:17:10.923Z,2.87
2019-04-20T15:19:51.695Z,3.07
2019-04-20T15:22:33.806Z,2.63
2019-04-20T15:25:03.273Z,2.30
2019-04-20T15:27:33.186Z,2.23
2019-04-20T15:30:02.680Z,1.90
2019-04-20T15:32:33.221Z,1.97
2019-04-20T15:35:03.023Z,2.40
2019-04-20T15:37:33.032Z,2.07
2019-04-20T15:40:03.431Z,2.77
2019-04-20T15:42:33.197Z,2.73
2019-04-20T15:45:05.322Z,2.77
2019-04-20T15:47:34.367Z,2.60
2019-04-20T15:50:04.167Z,2.67
2019-04-20T15:52:39.925Z,2.80
2019-04-20T15:55:14.249Z,2.67
2019-04-20T15:57:36.609Z,3.23
2019-04-20T16:00:06.786Z,2.67
2019-04-20T16:02:41.254Z,2.60
2019-04-20T16:05:38.591Z,2.20
2019-04-20T16:08:26.056Z,3.17
2019-04-20T16:10:55.332Z,2.70
2019-04-20T16:13:32.023Z,2.70
2019-04-20T16:15:56.000Z,2.77
2019-04-20T16:18:27.262Z,3.47
2019-04-20T16:21:05.528Z,3.17
2019-04-20T16:23:28.285Z,3.27
2019-04-20T16:26:23.891Z,3.50
2019-04-20T16:28:53.515Z,2.87
2019-04-20T16:31:22.791Z,3.17
2019-04-20T16:33:53.989Z,2.97
2019-04-20T16:36:22.869Z,2.90
2019-04-20T16:38:53.556Z,3.00
2019-04-20T16:41:22.563Z,3.27
2019-04-20T16:43:51.758Z,3.33
2019-04-20T16:46:25.195Z,3.30
2019-04-20T16:48:52.748Z,3.23
2019-04-20T16:51:22.887Z,2.83
2019-04-20T16:53:52.263Z,3.30
2019-04-20T16:56:22.334Z,3.23
2019-04-20T16:58:54.759Z,2.80
2019-04-20T17:01:23.489Z,2.97
2019-04-20T17:04:02.164Z,2.57
2019-04-20T17:06:24.257Z,2.90
2019-04-20T17:08:54.593Z,2.87
2019-04-20T17:11:23.925Z,2.70
2019-04-20T17:13:55.363Z,3.13
2019-04-20T17:16:23.824Z,2.90
2019-04-20T17:18:53.255Z,3.10
2019-04-20T17:21:25.768Z,3.10
2019-04-20T17:23:53.399Z,3.00
2019-04-20T17:26:36.858Z,2.83
2019-04-20T17:29:35.736Z,3.00
2019-04-20T17:32:09.881Z,2.70
2019-04-20T17:34:54.517Z,2.60
2019-04-20T17:37:10.698Z,3.20
2019-04-20T17:40:04.328Z,3.10
2019-04-20T17:42:25.173Z,2.87
2019-04-20T17:44:55.568Z,2.73
2019-04-20T17:47:30.399Z,3.10
2019-04-20T17:50:04.284Z,3.03
2019-04-20T17:52:36.512Z,2.80
2019-04-20T17:54:59.417Z,2.90
2019-04-20T17:57:29.129Z,3.00
2019-04-20T18:00:09.061Z,3.13
2019-04-20T18:02:58.996Z,2.93
2019-04-20T18:05:39.491Z,2.87
2019-04-20T18:08:17.296Z,3.03
2019-04-20T18:10:36.426Z,2.83
2019-04-20T18:12:56.265Z,3.20
2019-04-20T18:15:40.658Z,3.07
2019-04-20T18:18:27.943Z,3.70
2019-04-20T18:20:48.539Z,3.63
2019-04-20T18:23:25.477Z,4.00
2019-04-20T18:26:19.781Z,4.20
2019-04-20T18:28:34.618Z,4.47
2019-04-20T18:31:24.233Z,4.60
2019-04-20T18:34:02.839Z,4.00
2019-04-20T18:36:34.031Z,3.77
2019-04-20T18:39:04.566Z,4.33
2019-04-20T18:41:38.520Z,4.20
2019-04-20T18:44:00.948Z,4.67
2019-04-20T18:46:54.536Z,4.37
2019-04-20T18:49:18.165Z,4.57
2019-04-20T18:51:33.455Z,4.27
2019-04-20T18:54:08.519Z,4.97
2019-04-20T18:56:41.444Z,4.90
2019-04-20T18:59:05.230Z,4.23
2019-04-20T19:01:38.460Z,4.30
2019-04-20T19:04:06.157Z,4.53
2019-04-20T19:06:35.970Z,4.13
2019-04-20T19:09:10.448Z,3.97
2019-04-20T19:11:43.706Z,3.93
2019-04-20T19:14:45.206Z,3.63
2019-04-20T19:17:40.172Z,4.17
2019-04-20T19:20:04.114Z,3.90
2019-04-20T19:22:35.495Z,4.17
2019-04-20T19:25:03.654Z,4.33
2019-04-20T19:27:40.075Z,3.53
2019-04-20T19:30:17.845Z,4.43
2019-04-20T19:32:49.907Z,4.27
2019-04-20T19:35:23.539Z,4.37
2019-04-20T19:37:50.287Z,4.10
2019-04-20T19:40:20.109Z,3.87
2019-04-20T19:42:50.417Z,4.57
2019-04-20T19:45:40.040Z,4.10
2019-04-20T19:47:54.730Z,4.40
2019-04-20T19:50:36.693Z,4.63
2019-04-20T19:53:15.421Z,4.40
2019-04-20T19:55:29.803Z,4.33
2019-04-20T19:57:58.870Z,4.03
2019-04-20T20:00:16.532Z,4.97
2019-04-20T20:02:45.970Z,4.47
2019-04-20T20:05:16.274Z,4.30
2019-04-20T20:07:49.833Z,4.47
2019-04-20T20:10:20.811Z,4.97
2019-04-20T20:12:52.818Z,4.37
2019-04-20T20:15:26.122Z,4.53
2019-04-20T20:18:12.757Z,5.37
2019-04-20T20:20:44.148Z,5.60
2019-04-20T20:22:54.017Z,4.57
2019-04-20T20:25:24.390Z,5.03
2019-04-20T20:27:57.538Z,4.77
2019-04-20T20:30:32.041Z,5.10
2019-04-20T20:33:12.804Z,4.80
2019-04-20T20:35:29.399Z,5.27
2019-04-20T20:37:59.301Z,5.50
2019-04-20T20:40:32.845Z,4.97
2019-04-20T20:43:10.793Z,5.37
2019-04-20T20:45:37.203Z,5.03
2019-04-20T20:48:15.268Z,5.50
2019-04-20T20:50:50.925Z,5.30
2019-04-20T20:53:13.439Z,5.03
2019-04-20T20:55:40.886Z,5.40
2019-04-20T20:58:11.499Z,5.10
2019-04-20T21:00:45.742Z,5.30
2019-04-20T21:03:09.155Z,5.33
2019-04-20T21:05:35.674Z,5.63
2019-04-20T21:08:05.888Z,5.20
2019-04-20T21:10:40.987Z,4.83
2019-04-20T21:13:10.297Z,5.30
2019-04-20T21:15:38.398Z,5.43
2019-04-20T21:18:29.430Z,5.67
2019-04-20T21:20:55.217Z,5.60
2019-04-20T21:23:22.475Z,5.40
2019-04-20T21:25:59.117Z,6.20
2019-04-20T21:28:28.835Z,5.43
2019-04-20T21:31:05.129Z,5.87
2019-04-20T21:33:32.824Z,5.10
2019-04-20T21:36:00.846Z,5.60
2019-04-20T21:38:35.530Z,5.70
2019-04-20T21:41:07.487Z,5.90
2019-04-20T21:43:36.668Z,5.77
2019-04-20T21:46:06.670Z,5.73
2019-04-20T21:48:51.794Z,6.27
2019-04-20T21:51:18.969Z,5.80
2019-04-20T21:53:37.192Z,5.30
2019-04-20T21:56:08.090Z,4.87
2019-04-20T21:58:43.595Z,5.60
2019-04-20T22:01:20.083Z,4.77
2019-04-20T22:03:40.536Z,5.83
2019-04-20T22:06:10.747Z,6.10
2019-04-20T22:08:45.936Z,5.73
2019-04-20T22:11:11.708Z,5.87
2019-04-20T22:13:43.641Z,5.23
2019-04-20T22:16:13.136Z,5.73
2019-04-20T22:18:53.005Z,5.40
2019-04-20T22:21:22.758Z,5.30
2019-04-20T22:23:59.836Z,5.00
2019-04-20T22:26:26.773Z,5.67
2019-04-20T22:28:46.100Z,5.30
2019-04-20T22:31:15.964Z,5.07
2019-04-20T22:33:46.838Z,5.60
2019-04-20T22:36:20.252Z,5.20
2019-04-20T22:39:09.584Z,5.00
2019-04-20T22:42:04.742Z,4.73
2019-04-20T22:44:30.638Z,4.70
2019-04-20T22:47:00.354Z,4.67
2019-04-20T22:49:47.268Z,4.43
2019-04-20T22:52:18.546Z,5.03
2019-04-20T22:54:44.667Z,4.13
2019-04-20T22:57:12.461Z,5.03
2019-04-20T22:59:43.276Z,4.87
2019-04-20T23:02:06.536Z,5.23
2019-04-20T23:04:35.247Z,5.00
2019-04-20T23:07:05.020Z,5.10
2019-04-20T23:09:43.820Z,5.20
2019-04-20T23:12:11.292Z,4.83
2019-04-20T23:14:36.460Z,4.57
2019-04-20T23:17:06.381Z,4.97
2019-04-20T23:19:43.883Z,4.53
2019-04-20T23:22:09.911Z,4.60
2019-04-20T23:24:37.605Z,4.77
2019-04-20T23:27:16.616Z,4.57
2019-04-20T23:29:40.030Z,4.97
2019-04-20T23:32:11.961Z,4.80
2019-04-20T23:34:39.680Z,4.47
2019-04-20T23:37:16.032Z,4.57
2019-04-20T23:39:43.007Z,4.57
2019-04-20T23:42:16.022Z,4.40
2019-04-20T23:45:02.201Z,4.83
2019-04-20T23:47:52.405Z,4.73
2019-04-20T23:50:37.336Z,4.63
2019-04-20T23:53:05.176Z,5.03
2019-04-20T23:55:19.254Z,5.63
2019-04-20T23:57:55.899Z,5.03
